Thunder radar more information blitzortung!


Radar de pluja more information rain snow radar


Visita la nostra xarxa de llocs de meteo:

Template documentation
and downloads

And another site



No particular awareness of the weather is required.    There are no Weather-warnings

Pagina Historial Weather Underground text

Diari Resum May 21, 2017 Unitats:  Tant    Imperial   Mètric
« Previous Dia
SegĂźent Dia »
Diari Setmana Mensual Anual Personalitzada
  Maxima: Minima: Media:
Temperatura: 79.2 °F /  26.2 °C 52.5 °F /  11.4 °C 69.3 °F /  20.7 °C
Punt de rosada: 55.6 °F /  13.1 °C 45.3 °F /  7.4 °C 50 °F /  10 °C
Humitat: 80 % 39 % 52 %
Wind Speed: 14.7 mph /  23.7 km/h - 4.7 mph /  7.6 km/h
RĂ fegues de vent: 14.7 mph /  23.7 km/h - -
Vent:- - SSW
Pression baro: 30.3 in /  1026.0 hPa 30.1 in /  1018.8 hPa -
Precipitacions: 0 in /  0.0 mm    
Historical Graphs
 
 
Dades de taula per May 21, 2017
Temps Temperatura Punt de rosada Pression baro Vent Wind Speed RĂ fegues de vent Humitat Rainfall Rate (Hourly)
00:00 54.5 °F /  12.5 °C 47.8 °F /  8.8 °C 30.2 in /  1023.9 hPa SSW 1 mph /  1.6 km/h 1 mph /  1.6 km/h 78 % 0 in /  0.0 mm
00:04 59.9 °F /  15.5 °C 50.5 °F /  10.3 °C 30.3 in /  1026.0 hPa NE 3.5 mph /  5.6 km/h 3.5 mph /  5.6 km/h 71 % 0 in /  0.0 mm
00:09 59.7 °F /  15.4 °C 50.4 °F /  10.2 °C 30.3 in /  1026.0 hPa NE 2.3 mph /  3.7 km/h 2.3 mph /  3.7 km/h 71 % 0 in /  0.0 mm
00:10 54.3 °F /  12.4 °C 47.7 °F /  8.7 °C 30.3 in /  1024.9 hPa Calm     78 % 0 in /  0.0 mm
00:20 53.8 °F /  12.1 °C 47.1 °F /  8.4 °C 30.3 in /  1024.9 hPa Calm     78 % 0 in /  0.0 mm
00:30 53.6 °F /  12.0 °C 47.1 °F /  8.4 °C 30.2 in /  1023.9 hPa ESE 1 mph /  1.6 km/h 2 mph /  3.2 km/h 79 % 0 in /  0.0 mm
00:40 53.4 °F /  11.9 °C 47.1 °F /  8.4 °C 30.2 in /  1023.9 hPa ENE 1 mph /  1.6 km/h 2 mph /  3.2 km/h 79 % 0 in /  0.0 mm
00:50 53.4 °F /  11.9 °C 47.1 °F /  8.4 °C 30.2 in /  1023.9 hPa NE 1 mph /  1.6 km/h 2 mph /  3.2 km/h 79 % 0 in /  0.0 mm
01:00 53.2 °F /  11.8 °C 46.9 °F /  8.3 °C 30.2 in /  1023.9 hPa Calm   1 mph /  1.6 km/h 79 % 0 in /  0.0 mm
01:10 53.1 °F /  11.7 °C 46.8 °F /  8.2 °C 30.2 in /  1023.9 hPa Calm     79 % 0 in /  0.0 mm
01:20 52.9 °F /  11.6 °C 46.6 °F /  8.1 °C 30.2 in /  1023.9 hPa East 1 mph /  1.6 km/h 1 mph /  1.6 km/h 79 % 0 in /  0.0 mm
01:30 52.7 °F /  11.5 °C 46.4 °F /  8.0 °C 30.2 in /  1023.9 hPa Calm     79 % 0 in /  0.0 mm
01:40 52.5 °F /  11.4 °C 46.6 °F /  8.1 °C 30.2 in /  1023.9 hPa Calm     80 % 0 in /  0.0 mm
01:50 52.5 °F /  11.4 °C 46.6 °F /  8.1 °C 30.2 in /  1023.9 hPa NNE 1 mph /  1.6 km/h 1 mph /  1.6 km/h 80 % 0 in /  0.0 mm
02:00 52.7 °F /  11.5 °C 46.8 °F /  8.2 °C 30.3 in /  1024.9 hPa Calm   2 mph /  3.2 km/h 80 % 0 in /  0.0 mm
02:10 53.2 °F /  11.8 °C 47.1 °F /  8.4 °C 30.2 in /  1023.9 hPa Calm   2 mph /  3.2 km/h 80 % 0 in /  0.0 mm
02:20 53.6 °F /  12.0 °C 47.7 °F /  8.7 °C 30.2 in /  1023.9 hPa ESE 1 mph /  1.6 km/h 2 mph /  3.2 km/h 80 % 0 in /  0.0 mm
02:30 53.8 °F /  12.1 °C 47.5 °F /  8.6 °C 30.2 in /  1023.9 hPa South 2 mph /  3.2 km/h 2 mph /  3.2 km/h 79 % 0 in /  0.0 mm
02:40 54 °F /  12.2 °C 47.7 °F /  8.7 °C 30.3 in /  1024.9 hPa SW 1 mph /  1.6 km/h 2 mph /  3.2 km/h 79 % 0 in /  0.0 mm
02:50 54.3 °F /  12.4 °C 47.8 °F /  8.8 °C 30.3 in /  1024.9 hPa WSW 1 mph /  1.6 km/h 3 mph /  4.8 km/h 79 % 0 in /  0.0 mm
03:00 55.6 °F /  13.1 °C 49.3 °F /  9.6 °C 30.3 in /  1024.9 hPa Calm   1 mph /  1.6 km/h 79 % 0 in /  0.0 mm
03:10 57 °F /  13.9 °C 49.8 °F /  9.9 °C 30.3 in /  1024.9 hPa SSW 2 mph /  3.2 km/h 2 mph /  3.2 km/h 77 % 0 in /  0.0 mm
03:20 56.7 °F /  13.7 °C 49.3 °F /  9.6 °C 30.3 in /  1024.9 hPa SSW 1 mph /  1.6 km/h 2 mph /  3.2 km/h 76 % 0 in /  0.0 mm
03:30 57.7 °F /  14.3 °C 50.2 °F /  10.1 °C 30.2 in /  1023.9 hPa SW 2 mph /  3.2 km/h 2 mph /  3.2 km/h 76 % 0 in /  0.0 mm
03:40 59.2 °F /  15.1 °C 51.3 °F /  10.7 °C 30.2 in /  1023.9 hPa SW 1 mph /  1.6 km/h 2 mph /  3.2 km/h 75 % 0 in /  0.0 mm
03:50 60.6 °F /  15.9 °C 52.3 °F /  11.3 °C 30.2 in /  1023.9 hPa Calm   2 mph /  3.2 km/h 74 % 0 in /  0.0 mm
04:00 60.3 °F /  15.7 °C 50.7 °F /  10.4 °C 30.3 in /  1024.9 hPa NE 3 mph /  4.8 km/h 3 mph /  4.8 km/h 71 % 0 in /  0.0 mm
04:10 61 °F /  16.1 °C 51.4 °F /  10.8 °C 30.2 in /  1023.9 hPa NE 2 mph /  3.2 km/h 4 mph /  6.4 km/h 71 % 0 in /  0.0 mm
04:20 61.3 °F /  16.3 °C 51.4 °F /  10.8 °C 30.2 in /  1023.9 hPa ENE 2 mph /  3.2 km/h 3 mph /  4.8 km/h 70 % 0 in /  0.0 mm
04:30 62.2 °F /  16.8 °C 52 °F /  11.1 °C 30.2 in /  1023.9 hPa ENE 2 mph /  3.2 km/h 3 mph /  4.8 km/h 69 % 0 in /  0.0 mm
04:40 64 °F /  17.8 °C 52.9 °F /  11.6 °C 30.2 in /  1023.9 hPa Calm   2 mph /  3.2 km/h 67 % 0 in /  0.0 mm
04:50 64.2 °F /  17.9 °C 52.2 °F /  11.2 °C 30.2 in /  1023.9 hPa NE 2 mph /  3.2 km/h 3 mph /  4.8 km/h 65 % 0 in /  0.0 mm
05:00 64.8 °F /  18.2 °C 52.7 °F /  11.5 °C 30.2 in /  1023.9 hPa NE 1 mph /  1.6 km/h 3 mph /  4.8 km/h 65 % 0 in /  0.0 mm
05:10 65.1 °F /  18.4 °C 52.5 °F /  11.4 °C 30.2 in /  1023.9 hPa ENE 3 mph /  4.8 km/h 3 mph /  4.8 km/h 64 % 0 in /  0.0 mm
05:20 65.8 °F /  18.8 °C 52.9 °F /  11.6 °C 30.2 in /  1023.9 hPa ENE 1 mph /  1.6 km/h 4 mph /  6.4 km/h 63 % 0 in /  0.0 mm
05:30 67.5 °F /  19.7 °C 53.4 °F /  11.9 °C 30.2 in /  1023.9 hPa SE 2 mph /  3.2 km/h 2 mph /  3.2 km/h 61 % 0 in /  0.0 mm
05:40 67.6 °F /  19.8 °C 53.2 °F /  11.8 °C 30.2 in /  1023.9 hPa South 2 mph /  3.2 km/h 3 mph /  4.8 km/h 60 % 0 in /  0.0 mm
05:50 68.4 °F /  20.2 °C 53.1 °F /  11.7 °C 30.2 in /  1023.9 hPa SSW 1 mph /  1.6 km/h 2 mph /  3.2 km/h 58 % 0 in /  0.0 mm
06:00 69.4 °F /  20.8 °C 53.4 °F /  11.9 °C 30.2 in /  1022.9 hPa SSW 2 mph /  3.2 km/h 4 mph /  6.4 km/h 57 % 0 in /  0.0 mm
06:10 70 °F /  21.1 °C 53.6 °F /  12.0 °C 30.2 in /  1023.9 hPa SSW 2 mph /  3.2 km/h 3 mph /  4.8 km/h 56 % 0 in /  0.0 mm
06:20 70.5 °F /  21.4 °C 53.1 °F /  11.7 °C 30.2 in /  1023.9 hPa SSW 2 mph /  3.2 km/h 5 mph /  8.0 km/h 54 % 0 in /  0.0 mm
06:30 70.9 °F /  21.6 °C 52.3 °F /  11.3 °C 30.2 in /  1023.9 hPa SW 3 mph /  4.8 km/h 5 mph /  8.0 km/h 52 % 0 in /  0.0 mm
06:40 72.1 °F /  22.3 °C 53.4 °F /  11.9 °C 30.2 in /  1023.9 hPa WSW 3 mph /  4.8 km/h 5 mph /  8.0 km/h 52 % 0 in /  0.0 mm
06:50 72 °F /  22.2 °C 52.9 °F /  11.6 °C 30.2 in /  1023.9 hPa SW 3 mph /  4.8 km/h 6 mph /  9.7 km/h 51 % 0 in /  0.0 mm
07:00 73.8 °F /  23.2 °C 54 °F /  12.2 °C 30.2 in /  1023.9 hPa SSW 5 mph /  8.0 km/h 5 mph /  8.0 km/h 50 % 0 in /  0.0 mm
07:10 74.1 °F /  23.4 °C 53.8 °F /  12.1 °C 30.2 in /  1023.9 hPa SSW 3 mph /  4.8 km/h 3 mph /  4.8 km/h 49 % 0 in /  0.0 mm
12:14 74.5 °F /  23.6 °C 54.1 °F /  12.3 °C 30.2 in /  1023.9 hPa SSW 3.5 mph /  5.6 km/h 3.8 mph /  6.1 km/h 49 % 0 in /  0.0 mm
12:15 74.5 °F /  23.6 °C 54.1 °F /  12.3 °C 30.2 in /  1023.9 hPa SW 3.5 mph /  5.6 km/h 3.8 mph /  6.1 km/h 49 % 0 in /  0.0 mm
12:20 74.7 °F /  23.7 °C 54.1 °F /  12.3 °C 30.2 in /  1023.9 hPa SW 5.8 mph /  9.3 km/h 5.8 mph /  9.3 km/h 49 % 0 in /  0.0 mm
12:25 74.8 °F /  23.8 °C 53.8 °F /  12.1 °C 30.2 in /  1023.9 hPa SW 5.8 mph /  9.3 km/h 5.8 mph /  9.3 km/h 48 % 0 in /  0.0 mm
12:30 74.8 °F /  23.8 °C 54.3 °F /  12.4 °C 30.2 in /  1023.9 hPa SW 8.1 mph /  13.0 km/h 8.1 mph /  13.0 km/h 49 % 0 in /  0.0 mm
12:35 75.4 °F /  24.1 °C 54.9 °F /  12.7 °C 30.2 in /  1023.9 hPa SW 8.1 mph /  13.0 km/h 8.1 mph /  13.0 km/h 49 % 0 in /  0.0 mm
12:40 76.1 °F /  24.5 °C 55.6 °F /  13.1 °C 30.2 in /  1023.9 hPa SSW 4.6 mph /  7.4 km/h 4.6 mph /  7.4 km/h 49 % 0 in /  0.0 mm
12:45 75 °F /  23.9 °C 54.7 °F /  12.6 °C 30.2 in /  1023.9 hPa SW 5.8 mph /  9.3 km/h 6.7 mph /  10.8 km/h 49 % 0 in /  0.0 mm
12:50 74.8 °F /  23.8 °C 54.3 °F /  12.4 °C 30.2 in /  1023.9 hPa SSW 5.8 mph /  9.3 km/h 5.8 mph /  9.3 km/h 49 % 0 in /  0.0 mm
12:55 74.7 °F /  23.7 °C 54.1 °F /  12.3 °C 30.2 in /  1022.9 hPa WNW 9.2 mph /  14.8 km/h 9.2 mph /  14.8 km/h 49 % 0 in /  0.0 mm
13:00 75.2 °F /  24.0 °C 54.7 °F /  12.6 °C 30.2 in /  1022.9 hPa SSW 6.9 mph /  11.1 km/h 6.9 mph /  11.1 km/h 49 % 0 in /  0.0 mm
13:05 74.8 °F /  23.8 °C 54.3 °F /  12.4 °C 30.2 in /  1022.9 hPa WNW 10.4 mph /  16.7 km/h 10.4 mph /  16.7 km/h 49 % 0 in /  0.0 mm
13:10 75.4 °F /  24.1 °C 54.3 °F /  12.4 °C 30.2 in /  1022.9 hPa SSW 4.6 mph /  7.4 km/h 4.6 mph /  7.4 km/h 48 % 0 in /  0.0 mm
13:15 75.6 °F /  24.2 °C 54.5 °F /  12.5 °C 30.2 in /  1022.9 hPa WSW 11.5 mph /  18.5 km/h 11.5 mph /  18.5 km/h 48 % 0 in /  0.0 mm
13:17 75.4 °F /  24.1 °C 54.3 °F /  12.4 °C 30.2 in /  1022.9 hPa SSW 9.2 mph /  14.8 km/h 9.2 mph /  14.8 km/h 48 % 0 in /  0.0 mm
13:22 75.4 °F /  24.1 °C 54.3 °F /  12.4 °C 30.2 in /  1022.9 hPa WSW 4.6 mph /  7.4 km/h 4.6 mph /  7.4 km/h 48 % 0 in /  0.0 mm
13:27 75.9 °F /  24.4 °C 54.9 °F /  12.7 °C 30.2 in /  1022.9 hPa SW 6 mph /  9.7 km/h 6 mph /  9.7 km/h 48 % 0 in /  0.0 mm
13:32 75.7 °F /  24.3 °C 54.1 °F /  12.3 °C 30.2 in /  1022.9 hPa SW 3.5 mph /  5.6 km/h 3.8 mph /  6.1 km/h 47 % 0 in /  0.0 mm
13:37 76.3 °F /  24.6 °C 54.7 °F /  12.6 °C 30.2 in /  1022.9 hPa SW 3.5 mph /  5.6 km/h 3.5 mph /  5.6 km/h 47 % 0 in /  0.0 mm
13:42 76.8 °F /  24.9 °C 55 °F /  12.8 °C 30.2 in /  1022.9 hPa South 6.4 mph /  10.3 km/h 6.4 mph /  10.3 km/h 47 % 0 in /  0.0 mm
13:47 77.2 °F /  25.1 °C 54.9 °F /  12.7 °C 30.2 in /  1022.9 hPa SE 4.6 mph /  7.4 km/h 4.6 mph /  7.4 km/h 46 % 0 in /  0.0 mm
13:52 77 °F /  25.0 °C 54 °F /  12.2 °C 30.2 in /  1022.9 hPa ESE 7.8 mph /  12.6 km/h 7.8 mph /  12.6 km/h 45 % 0 in /  0.0 mm
13:57 77.4 °F /  25.2 °C 53.8 °F /  12.1 °C 30.2 in /  1022.9 hPa ESE 4.6 mph /  7.4 km/h 4.6 mph /  7.4 km/h 44 % 0 in /  0.0 mm
14:02 77.2 °F /  25.1 °C 53.6 °F /  12.0 °C 30.2 in /  1022.9 hPa SW 4.6 mph /  7.4 km/h 4.6 mph /  7.4 km/h 44 % 0 in /  0.0 mm
14:07 76.5 °F /  24.7 °C 53.4 °F /  11.9 °C 30.2 in /  1022.9 hPa SSW 4 mph /  6.4 km/h 4 mph /  6.4 km/h 45 % 0 in /  0.0 mm
14:12 77.4 °F /  25.2 °C 53.8 °F /  12.1 °C 30.2 in /  1021.9 hPa SSW 5.8 mph /  9.3 km/h 5.8 mph /  9.3 km/h 44 % 0 in /  0.0 mm
14:17 78.3 °F /  25.7 °C 54.7 °F /  12.6 °C 30.2 in /  1021.9 hPa South 4.6 mph /  7.4 km/h 4.6 mph /  7.4 km/h 44 % 0 in /  0.0 mm
14:22 77.7 °F /  25.4 °C 53.4 °F /  11.9 °C 30.2 in /  1021.9 hPa SE 5.8 mph /  9.3 km/h 5.8 mph /  9.3 km/h 43 % 0 in /  0.0 mm
14:27 77.5 °F /  25.3 °C 53.2 °F /  11.8 °C 30.2 in /  1021.9 hPa WSW 2.6 mph /  4.2 km/h 2.6 mph /  4.2 km/h 43 % 0 in /  0.0 mm
14:32 77 °F /  25.0 °C 52.9 °F /  11.6 °C 30.2 in /  1021.9 hPa SE 5.8 mph /  9.3 km/h 5.8 mph /  9.3 km/h 43 % 0 in /  0.0 mm
14:37 78.3 °F /  25.7 °C 54 °F /  12.2 °C 30.2 in /  1021.9 hPa SSW 3.5 mph /  5.6 km/h 3.5 mph /  5.6 km/h 43 % 0 in /  0.0 mm
14:42 78.4 °F /  25.8 °C 54.1 °F /  12.3 °C 30.2 in /  1021.9 hPa West 2.6 mph /  4.2 km/h 2.6 mph /  4.2 km/h 43 % 0 in /  0.0 mm
14:47 78.3 °F /  25.7 °C 54 °F /  12.2 °C 30.2 in /  1021.9 hPa WSW 8.1 mph /  13.0 km/h 8.1 mph /  13.0 km/h 43 % 0 in /  0.0 mm
14:52 77.9 °F /  25.5 °C 53.1 °F /  11.7 °C 30.2 in /  1021.9 hPa SW 8.1 mph /  13.0 km/h 8.1 mph /  13.0 km/h 42 % 0 in /  0.0 mm
14:57 78.3 °F /  25.7 °C 53.2 °F /  11.8 °C 30.2 in /  1021.9 hPa ESE 4.6 mph /  7.4 km/h 4.6 mph /  7.4 km/h 42 % 0 in /  0.0 mm
15:02 78.4 °F /  25.8 °C 53.4 °F /  11.9 °C 30.2 in /  1021.9 hPa WSW 8.1 mph /  13.0 km/h 8.1 mph /  13.0 km/h 42 % 0 in /  0.0 mm
15:07 78.3 °F /  25.7 °C 53.2 °F /  11.8 °C 30.2 in /  1021.9 hPa SSW 5.8 mph /  9.3 km/h 5.8 mph /  9.3 km/h 42 % 0 in /  0.0 mm
15:12 79 °F /  26.1 °C 54 °F /  12.2 °C 30.2 in /  1021.9 hPa SSW 8.1 mph /  13.0 km/h 8.1 mph /  13.0 km/h 42 % 0 in /  0.0 mm
15:17 78.4 °F /  25.8 °C 53.4 °F /  11.9 °C 30.2 in /  1021.9 hPa SW 6.9 mph /  11.1 km/h 6.9 mph /  11.1 km/h 42 % 0 in /  0.0 mm
15:22 78.6 °F /  25.9 °C 52.9 °F /  11.6 °C 30.2 in /  1021.9 hPa WSW 5.8 mph /  9.3 km/h 5.8 mph /  9.3 km/h 41 % 0 in /  0.0 mm
15:27 78.6 °F /  25.9 °C 53.6 °F /  12.0 °C 30.2 in /  1021.9 hPa WSW 3.5 mph /  5.6 km/h 3.5 mph /  5.6 km/h 42 % 0 in /  0.0 mm
15:32 79.2 °F /  26.2 °C 54.1 °F /  12.3 °C 30.2 in /  1021.9 hPa WSW 5.8 mph /  9.3 km/h 5.8 mph /  9.3 km/h 42 % 0 in /  0.0 mm
15:37 78.8 °F /  26.0 °C 53.1 °F /  11.7 °C 30.2 in /  1021.9 hPa WSW 8.1 mph /  13.0 km/h 8.1 mph /  13.0 km/h 41 % 0 in /  0.0 mm
15:42 78.8 °F /  26.0 °C 53.1 °F /  11.7 °C 30.2 in /  1021.9 hPa SSW 10.4 mph /  16.7 km/h 10.4 mph /  16.7 km/h 41 % 0 in /  0.0 mm
15:47 79.2 °F /  26.2 °C 53.4 °F /  11.9 °C 30.2 in /  1021.9 hPa SSW 6.9 mph /  11.1 km/h 6.9 mph /  11.1 km/h 41 % 0 in /  0.0 mm
15:48 79 °F /  26.1 °C 53.2 °F /  11.8 °C 30.2 in /  1021.9 hPa SW 8.1 mph /  13.0 km/h 8.1 mph /  13.0 km/h 41 % 0 in /  0.0 mm
15:53 78.3 °F /  25.7 °C 52.5 °F /  11.4 °C 30.2 in /  1020.9 hPa SW 9.2 mph /  14.8 km/h 9.2 mph /  14.8 km/h 41 % 0 in /  0.0 mm
15:58 78.1 °F /  25.6 °C 52.5 °F /  11.4 °C 30.2 in /  1020.9 hPa SW 9.2 mph /  14.8 km/h 9.2 mph /  14.8 km/h 41 % 0 in /  0.0 mm
16:03 78.1 °F /  25.6 °C 52.5 °F /  11.4 °C 30.2 in /  1020.9 hPa West 8.1 mph /  13.0 km/h 8.1 mph /  13.0 km/h 41 % 0 in /  0.0 mm
16:08 77.9 °F /  25.5 °C 52.3 °F /  11.3 °C 30.2 in /  1020.9 hPa WSW 9.2 mph /  14.8 km/h 9.2 mph /  14.8 km/h 41 % 0 in /  0.0 mm
16:13 78.4 °F /  25.8 °C 52.9 °F /  11.6 °C 30.2 in /  1020.9 hPa South 5.8 mph /  9.3 km/h 5.8 mph /  9.3 km/h 41 % 0 in /  0.0 mm
16:18 77.9 °F /  25.5 °C 52.3 °F /  11.3 °C 30.2 in /  1020.9 hPa SW 8.1 mph /  13.0 km/h 8.1 mph /  13.0 km/h 41 % 0 in /  0.0 mm
16:19 78.1 °F /  25.6 °C 52.5 °F /  11.4 °C 30.2 in /  1020.9 hPa SW 8.7 mph /  14.0 km/h 8.7 mph /  14.0 km/h 41 % 0 in /  0.0 mm
16:24 78.1 °F /  25.6 °C 52.5 °F /  11.4 °C 30.2 in /  1020.9 hPa West 8.1 mph /  13.0 km/h 8.1 mph /  13.0 km/h 41 % 0 in /  0.0 mm
16:29 78.1 °F /  25.6 °C 51.8 °F /  11.0 °C 30.2 in /  1020.9 hPa SW 13.8 mph /  22.2 km/h 13.8 mph /  22.2 km/h 40 % 0 in /  0.0 mm
16:34 78.1 °F /  25.6 °C 51.8 °F /  11.0 °C 30.2 in /  1020.9 hPa South 6.9 mph /  11.1 km/h 6.9 mph /  11.1 km/h 40 % 0 in /  0.0 mm
16:39 78.1 °F /  25.6 °C 51.8 °F /  11.0 °C 30.2 in /  1020.9 hPa SSW 8.1 mph /  13.0 km/h 8.1 mph /  13.0 km/h 40 % 0 in /  0.0 mm
16:44 77.5 °F /  25.3 °C 51.3 °F /  10.7 °C 30.2 in /  1020.9 hPa SW 9.2 mph /  14.8 km/h 9.2 mph /  14.8 km/h 40 % 0 in /  0.0 mm
16:49 78.1 °F /  25.6 °C 51.8 °F /  11.0 °C 30.2 in /  1020.9 hPa WSW 5.8 mph /  9.3 km/h 5.8 mph /  9.3 km/h 40 % 0 in /  0.0 mm
16:54 78.6 °F /  25.9 °C 52.3 °F /  11.3 °C 30.2 in /  1020.9 hPa SSW 4.6 mph /  7.4 km/h 4.6 mph /  7.4 km/h 40 % 0 in /  0.0 mm
16:59 79 °F /  26.1 °C 52.5 °F /  11.4 °C 30.2 in /  1020.9 hPa SW 5.9 mph /  9.5 km/h 5.9 mph /  9.5 km/h 40 % 0 in /  0.0 mm
17:04 77.9 °F /  25.5 °C 51.6 °F /  10.9 °C 30.2 in /  1020.9 hPa WSW 11.5 mph /  18.5 km/h 11.5 mph /  18.5 km/h 40 % 0 in /  0.0 mm
17:09 77.5 °F /  25.3 °C 51.3 °F /  10.7 °C 30.1 in /  1019.9 hPa SW 7.4 mph /  11.9 km/h 7.4 mph /  11.9 km/h 40 % 0 in /  0.0 mm
17:14 77.9 °F /  25.5 °C 51.6 °F /  10.9 °C 30.1 in /  1019.9 hPa SW 8.1 mph /  13.0 km/h 8.1 mph /  13.0 km/h 40 % 0 in /  0.0 mm
17:19 78.1 °F /  25.6 °C 51.1 °F /  10.6 °C 30.1 in /  1019.9 hPa SSE 5.8 mph /  9.3 km/h 5.8 mph /  9.3 km/h 39 % 0 in /  0.0 mm
17:24 77.2 °F /  25.1 °C 50.4 °F /  10.2 °C 30.1 in /  1019.9 hPa WSW 6.9 mph /  11.1 km/h 6.9 mph /  11.1 km/h 39 % 0 in /  0.0 mm
17:29 77.4 °F /  25.2 °C 50.5 °F /  10.3 °C 30.1 in /  1019.9 hPa SSW 4.7 mph /  7.6 km/h 4.7 mph /  7.6 km/h 39 % 0 in /  0.0 mm
17:34 76.3 °F /  24.6 °C 50.2 °F /  10.1 °C 30.1 in /  1019.9 hPa SW 8.1 mph /  13.0 km/h 8.1 mph /  13.0 km/h 40 % 0 in /  0.0 mm
17:39 75.9 °F /  24.4 °C 49.8 °F /  9.9 °C 30.1 in /  1019.9 hPa SSW 14.7 mph /  23.7 km/h 14.7 mph /  23.7 km/h 40 % 0 in /  0.0 mm
17:40 75.9 °F /  24.4 °C 49.8 °F /  9.9 °C 30.1 in /  1019.9 hPa SSW 5.9 mph /  9.5 km/h 5.9 mph /  9.5 km/h 40 % 0 in /  0.0 mm
17:45 75.6 °F /  24.2 °C 49.5 °F /  9.7 °C 30.1 in /  1019.9 hPa SW 10.5 mph /  16.9 km/h 10.5 mph /  16.9 km/h 40 % 0 in /  0.0 mm
17:50 75.2 °F /  24.0 °C 49.3 °F /  9.6 °C 30.1 in /  1019.9 hPa SW 9.7 mph /  15.6 km/h 9.7 mph /  15.6 km/h 40 % 0 in /  0.0 mm
17:55 75.2 °F /  24.0 °C 49.3 °F /  9.6 °C 30.1 in /  1018.8 hPa South 6.9 mph /  11.1 km/h 6.9 mph /  11.1 km/h 40 % 0 in /  0.0 mm
18:00 75.4 °F /  24.1 °C 49.5 °F /  9.7 °C 30.1 in /  1018.8 hPa SW 6 mph /  9.7 km/h 9 mph /  14.5 km/h 40 % 0 in /  0.0 mm
18:05 75.4 °F /  24.1 °C 50 °F /  10.0 °C 30.1 in /  1018.8 hPa SW 5 mph /  8.0 km/h 10 mph /  16.1 km/h 41 % 0 in /  0.0 mm
18:10 75 °F /  23.9 °C 49.6 °F /  9.8 °C 30.1 in /  1019.9 hPa WSW 10.4 mph /  16.7 km/h 10.4 mph /  16.7 km/h 41 % 0 in /  0.0 mm
18:15 74.5 °F /  23.6 °C 48.6 °F /  9.2 °C 30.1 in /  1019.9 hPa SW 6.2 mph /  10.0 km/h 6.2 mph /  10.0 km/h 40 % 0 in /  0.0 mm
18:20 73.9 °F /  23.3 °C 48.7 °F /  9.3 °C 30.1 in /  1019.9 hPa SW 8.1 mph /  13.0 km/h 8.1 mph /  13.0 km/h 41 % 0 in /  0.0 mm
18:25 73.9 °F /  23.3 °C 48.7 °F /  9.3 °C 30.1 in /  1019.9 hPa SW 4.6 mph /  7.4 km/h 4.6 mph /  7.4 km/h 41 % 0 in /  0.0 mm
18:30 73.8 °F /  23.2 °C 48.6 °F /  9.2 °C 30.1 in /  1019.9 hPa SW 10.4 mph /  16.7 km/h 10.4 mph /  16.7 km/h 41 % 0 in /  0.0 mm
18:35 72.5 °F /  22.5 °C 48 °F /  8.9 °C 30.1 in /  1019.9 hPa West 8.1 mph /  13.0 km/h 8.1 mph /  13.0 km/h 42 % 0 in /  0.0 mm
18:40 72.1 °F /  22.3 °C 47.8 °F /  8.8 °C 30.1 in /  1019.9 hPa SSW 6.9 mph /  11.1 km/h 6.9 mph /  11.1 km/h 42 % 0 in /  0.0 mm
18:45 71.8 °F /  22.1 °C 47.5 °F /  8.6 °C 30.1 in /  1019.9 hPa SW 12.7 mph /  20.4 km/h 12.7 mph /  20.4 km/h 42 % 0 in /  0.0 mm
18:50 71.8 °F /  22.1 °C 48 °F /  8.9 °C 30.1 in /  1019.9 hPa SW 10.4 mph /  16.7 km/h 10.4 mph /  16.7 km/h 43 % 0 in /  0.0 mm
18:55 72 °F /  22.2 °C 48.2 °F /  9.0 °C 30.2 in /  1020.9 hPa SSE 4.6 mph /  7.4 km/h 4.6 mph /  7.4 km/h 43 % 0 in /  0.0 mm
19:00 71.8 °F /  22.1 °C 48 °F /  8.9 °C 30.2 in /  1020.9 hPa West 8.1 mph /  13.0 km/h 8.1 mph /  13.0 km/h 43 % 0 in /  0.0 mm
19:05 71.2 °F /  21.8 °C 48.2 °F /  9.0 °C 30.2 in /  1020.9 hPa West 13.8 mph /  22.2 km/h 13.8 mph /  22.2 km/h 44 % 0 in /  0.0 mm
19:10 70.7 °F /  21.5 °C 47.7 °F /  8.7 °C 30.2 in /  1020.9 hPa SW 9.7 mph /  15.6 km/h 9.7 mph /  15.6 km/h 44 % 0 in /  0.0 mm
19:15 70 °F /  21.1 °C 47.7 °F /  8.7 °C 30.2 in /  1020.9 hPa SSW 8.1 mph /  13.0 km/h 8.1 mph /  13.0 km/h 45 % 0 in /  0.0 mm
19:20 69.8 °F /  21.0 °C 47.5 °F /  8.6 °C 30.2 in /  1020.9 hPa SSW 5.8 mph /  9.3 km/h 5.8 mph /  9.3 km/h 45 % 0 in /  0.0 mm
19:25 70 °F /  21.1 °C 47.7 °F /  8.7 °C 30.2 in /  1020.9 hPa SSW 3.5 mph /  5.6 km/h 3.5 mph /  5.6 km/h 45 % 0 in /  0.0 mm
19:30 70 °F /  21.1 °C 47.7 °F /  8.7 °C 30.2 in /  1020.9 hPa SW 8.5 mph /  13.7 km/h 8.5 mph /  13.7 km/h 45 % 0 in /  0.0 mm
19:35 69.4 °F /  20.8 °C 47.8 °F /  8.8 °C 30.2 in /  1020.9 hPa SW 8.1 mph /  13.0 km/h 8.1 mph /  13.0 km/h 46 % 0 in /  0.0 mm
19:40 68.9 °F /  20.5 °C 47.3 °F /  8.5 °C 30.2 in /  1020.9 hPa SSW 5.8 mph /  9.3 km/h 5.8 mph /  9.3 km/h 46 % 0 in /  0.0 mm
19:45 68.4 °F /  20.2 °C 46.8 °F /  8.2 °C 30.2 in /  1020.9 hPa SSW 9.2 mph /  14.8 km/h 9.2 mph /  14.8 km/h 46 % 0 in /  0.0 mm
19:50 68.4 °F /  20.2 °C 46.8 °F /  8.2 °C 30.2 in /  1020.9 hPa WSW 9.8 mph /  15.8 km/h 9.8 mph /  15.8 km/h 46 % 0 in /  0.0 mm
19:55 68 °F /  20.0 °C 46.4 °F /  8.0 °C 30.2 in /  1020.9 hPa SW 7.4 mph /  11.9 km/h 7.4 mph /  11.9 km/h 46 % 0 in /  0.0 mm
20:00 67.8 °F /  19.9 °C 46.2 °F /  7.9 °C 30.2 in /  1020.9 hPa WSW 5.8 mph /  9.3 km/h 5.8 mph /  9.3 km/h 46 % 0 in /  0.0 mm
20:05 68 °F /  20.0 °C 46.4 °F /  8.0 °C 30.2 in /  1020.9 hPa SW 4.6 mph /  7.4 km/h 4.6 mph /  7.4 km/h 46 % 0 in /  0.0 mm
20:10 67.8 °F /  19.9 °C 46.8 °F /  8.2 °C 30.2 in /  1020.9 hPa SW 3.5 mph /  5.6 km/h 3.5 mph /  5.6 km/h 47 % 0 in /  0.0 mm
20:15 67.6 °F /  19.8 °C 46.8 °F /  8.2 °C 30.2 in /  1020.9 hPa SW 5.8 mph /  9.3 km/h 5.8 mph /  9.3 km/h 47 % 0 in /  0.0 mm
20:20 67.3 °F /  19.6 °C 46.4 °F /  8.0 °C 30.2 in /  1020.9 hPa WSW 4.6 mph /  7.4 km/h 4.6 mph /  7.4 km/h 47 % 0 in /  0.0 mm
20:25 66.9 °F /  19.4 °C 46 °F /  7.8 °C 30.1 in /  1019.9 hPa SSW 5.8 mph /  9.3 km/h 5.8 mph /  9.3 km/h 47 % 0 in /  0.0 mm
20:30 66.9 °F /  19.4 °C 46 °F /  7.8 °C 30.1 in /  1019.9 hPa WSW 5.8 mph /  9.3 km/h 5.8 mph /  9.3 km/h 47 % 0 in /  0.0 mm
20:35 66.7 °F /  19.3 °C 45.9 °F /  7.7 °C 30.1 in /  1019.9 hPa SW 4.6 mph /  7.4 km/h 4.6 mph /  7.4 km/h 47 % 0 in /  0.0 mm
20:40 66.7 °F /  19.3 °C 45.9 °F /  7.7 °C 30.1 in /  1019.9 hPa SSW 3.5 mph /  5.6 km/h 3.5 mph /  5.6 km/h 47 % 0 in /  0.0 mm
20:45 66.6 °F /  19.2 °C 45.7 °F /  7.6 °C 30.1 in /  1019.9 hPa SW 4.6 mph /  7.4 km/h 4.6 mph /  7.4 km/h 47 % 0 in /  0.0 mm
20:50 66.4 °F /  19.1 °C 45.5 °F /  7.5 °C 30.1 in /  1019.9 hPa SW 3.5 mph /  5.6 km/h 3.5 mph /  5.6 km/h 47 % 0 in /  0.0 mm
20:55 66.2 °F /  19.0 °C 45.3 °F /  7.4 °C 30.1 in /  1019.9 hPa WSW 6 mph /  9.7 km/h 6 mph /  9.7 km/h 47 % 0 in /  0.0 mm
21:00 66 °F /  18.9 °C 45.9 °F /  7.7 °C 30.1 in /  1019.9 hPa SSW 2.3 mph /  3.7 km/h 2.4 mph /  3.9 km/h 48 % 0 in /  0.0 mm
21:05 65.8 °F /  18.8 °C 46 °F /  7.8 °C 30.1 in /  1019.9 hPa WSW 2.3 mph /  3.7 km/h 2.3 mph /  3.7 km/h 49 % 0 in /  0.0 mm
21:10 65.7 °F /  18.7 °C 46 °F /  7.8 °C 30.1 in /  1019.9 hPa WSW 3.5 mph /  5.6 km/h 3.5 mph /  5.6 km/h 49 % 0 in /  0.0 mm
21:15 65.5 °F /  18.6 °C 45.9 °F /  7.7 °C 30.1 in /  1019.9 hPa South 3.3 mph /  5.3 km/h 3.3 mph /  5.3 km/h 49 % 0 in /  0.0 mm
21:20 65.3 °F /  18.5 °C 45.7 °F /  7.6 °C 30.1 in /  1019.9 hPa WSW 2.3 mph /  3.7 km/h 2.3 mph /  3.7 km/h 49 % 0 in /  0.0 mm
21:25 65.3 °F /  18.5 °C 45.7 °F /  7.6 °C 30.1 in /  1019.9 hPa West 2.3 mph /  3.7 km/h 2.3 mph /  3.7 km/h 49 % 0 in /  0.0 mm
21:30 65.3 °F /  18.5 °C 45.7 °F /  7.6 °C 30.1 in /  1019.9 hPa SW 2.3 mph /  3.7 km/h 2.3 mph /  3.7 km/h 49 % 0 in /  0.0 mm
21:35 65.1 °F /  18.4 °C 45.5 °F /  7.5 °C 30.1 in /  1019.9 hPa SSW 3.5 mph /  5.6 km/h 3.5 mph /  5.6 km/h 49 % 0 in /  0.0 mm
21:40 64.9 °F /  18.3 °C 45.3 °F /  7.4 °C 30.1 in /  1019.9 hPa WSW 3.5 mph /  5.6 km/h 3.5 mph /  5.6 km/h 49 % 0 in /  0.0 mm
21:45 64.9 °F /  18.3 °C 45.9 °F /  7.7 °C 30.1 in /  1019.9 hPa WSW 2.2 mph /  3.5 km/h   50 % 0 in /  0.0 mm
21:50 64.8 °F /  18.2 °C 45.7 °F /  7.6 °C 30.1 in /  1019.9 hPa WSW 3.5 mph /  5.6 km/h 3.5 mph /  5.6 km/h 50 % 0 in /  0.0 mm
21:55 64.6 °F /  18.1 °C 45.5 °F /  7.5 °C 30.1 in /  1019.9 hPa West 3.5 mph /  5.6 km/h 3.5 mph /  5.6 km/h 50 % 0 in /  0.0 mm
22:00 64.6 °F /  18.1 °C 45.5 °F /  7.5 °C 30.1 in /  1019.9 hPa SW 2.3 mph /  3.7 km/h 2.3 mph /  3.7 km/h 50 % 0 in /  0.0 mm
22:05 64.6 °F /  18.1 °C 45.5 °F /  7.5 °C 30.1 in /  1019.9 hPa SW 2.3 mph /  3.7 km/h 2.3 mph /  3.7 km/h 50 % 0 in /  0.0 mm
22:10 64.4 °F /  18.0 °C 45.3 °F /  7.4 °C 30.1 in /  1019.9 hPa SW 2.3 mph /  3.7 km/h 2.3 mph /  3.7 km/h 50 % 0 in /  0.0 mm
22:15 64.4 °F /  18.0 °C 45.3 °F /  7.4 °C 30.1 in /  1019.9 hPa SW 2.4 mph /  3.9 km/h 2.4 mph /  3.9 km/h 50 % 0 in /  0.0 mm
22:20 64 °F /  17.8 °C 45.5 °F /  7.5 °C 30.1 in /  1019.9 hPa SW 2.3 mph /  3.7 km/h 2.3 mph /  3.7 km/h 51 % 0 in /  0.0 mm
22:25 63.9 °F /  17.7 °C 45.3 °F /  7.4 °C 30.1 in /  1019.9 hPa SW 4.6 mph /  7.4 km/h 4.6 mph /  7.4 km/h 51 % 0 in /  0.0 mm
22:30 63.9 °F /  17.7 °C 45.3 °F /  7.4 °C 30.1 in /  1019.9 hPa WNW 2.3 mph /  3.7 km/h 2.3 mph /  3.7 km/h 51 % 0 in /  0.0 mm
22:35 63.9 °F /  17.7 °C 45.9 °F /  7.7 °C 30.1 in /  1019.9 hPa WSW 1.2 mph /  1.9 km/h   52 % 0 in /  0.0 mm
22:40 63.9 °F /  17.7 °C 45.9 °F /  7.7 °C 30.2 in /  1020.9 hPa SW 2.3 mph /  3.7 km/h 2.3 mph /  3.7 km/h 52 % 0 in /  0.0 mm
22:45 63.7 °F /  17.6 °C 46.2 °F /  7.9 °C 30.2 in /  1020.9 hPa Calm     53 % 0 in /  0.0 mm
22:50 63.7 °F /  17.6 °C 46.2 °F /  7.9 °C 30.2 in /  1020.9 hPa WSW 2.3 mph /  3.7 km/h 2.3 mph /  3.7 km/h 53 % 0 in /  0.0 mm
22:51 63.7 °F /  17.6 °C 46.2 °F /  7.9 °C 30.2 in /  1020.9 hPa SW 2.3 mph /  3.7 km/h 2.3 mph /  3.7 km/h 53 % 0 in /  0.0 mm
22:56 63.5 °F /  17.5 °C 46.6 °F /  8.1 °C 30.1 in /  1019.9 hPa WSW 2.3 mph /  3.7 km/h 2.3 mph /  3.7 km/h 54 % 0 in /  0.0 mm
23:01 63.5 °F /  17.5 °C 46.6 °F /  8.1 °C 30.1 in /  1019.9 hPa WSW 3.5 mph /  5.6 km/h 3.5 mph /  5.6 km/h 54 % 0 in /  0.0 mm
23:06 63.5 °F /  17.5 °C 46.6 °F /  8.1 °C 30.1 in /  1019.9 hPa SW 2.2 mph /  3.5 km/h 2.2 mph /  3.5 km/h 54 % 0 in /  0.0 mm
23:11 63.5 °F /  17.5 °C 46.9 °F /  8.3 °C 30.1 in /  1019.9 hPa SW 1.6 mph /  2.6 km/h 1.6 mph /  2.6 km/h 55 % 0 in /  0.0 mm
23:16 63.5 °F /  17.5 °C 46.9 °F /  8.3 °C 30.1 in /  1019.9 hPa WSW 2.3 mph /  3.7 km/h 2.3 mph /  3.7 km/h 55 % 0 in /  0.0 mm
23:21 63.3 °F /  17.4 °C 47.3 °F /  8.5 °C 30.1 in /  1019.9 hPa SW 3.5 mph /  5.6 km/h 3.5 mph /  5.6 km/h 56 % 0 in /  0.0 mm
23:26 63.3 °F /  17.4 °C 47.8 °F /  8.8 °C 30.2 in /  1020.9 hPa SW 2.3 mph /  3.7 km/h 2.3 mph /  3.7 km/h 57 % 0 in /  0.0 mm
23:31 63.3 °F /  17.4 °C 48.4 °F /  9.1 °C 30.2 in /  1020.9 hPa WNW 2.4 mph /  3.9 km/h 2.4 mph /  3.9 km/h 58 % 0 in /  0.0 mm
23:36 63.3 °F /  17.4 °C 48.4 °F /  9.1 °C 30.2 in /  1020.9 hPa WSW 2.3 mph /  3.7 km/h 2.3 mph /  3.7 km/h 58 % 0 in /  0.0 mm
23:41 63.3 °F /  17.4 °C 48.7 °F /  9.3 °C 30.2 in /  1020.9 hPa WSW 2.3 mph /  3.7 km/h 2.3 mph /  3.7 km/h 59 % 0 in /  0.0 mm
23:46 63.1 °F /  17.3 °C 48.9 °F /  9.4 °C 30.2 in /  1020.9 hPa SW 2.3 mph /  3.7 km/h 2.3 mph /  3.7 km/h 60 % 0 in /  0.0 mm
23:51 63 °F /  17.2 °C 49.3 °F /  9.6 °C 30.2 in /  1020.9 hPa SW 2.3 mph /  3.7 km/h 2.3 mph /  3.7 km/h 61 % 0 in /  0.0 mm
23:56 62.8 °F /  17.1 °C 49.1 °F /  9.5 °C 30.1 in /  1019.9 hPa SW 2.3 mph /  3.7 km/h 2.3 mph /  3.7 km/h 61 % 0 in /  0.0 mm
Meteo Sesrovires
Elogis d' Weather Underground - 3.5 mb

Guio original per  Jim McMurry - jmcmurry@mwt.net Adaptat per a la plantilla per  Wim van der Kuil - Leuven-Template.eu

Trobareu la nostra informacio del temps tambe a:

Weather Underground

AWEKAS